sensor_id;sensor_type;location;lat;lon;timestamp;P1;durP1;ratioP1;P2;durP2;ratioP2
20802;SDS011;10562;-33.856;151.182;2023-05-16T00:02:21;25.73;;;23.15;;
20802;SDS011;10562;-33.856;151.182;2023-05-16T00:04:54;23.60;;;21.40;;
20802;SDS011;10562;-33.856;151.182;2023-05-16T00:07:25;24.42;;;20.10;;
20802;SDS011;10562;-33.856;151.182;2023-05-16T00:09:55;19.23;;;17.40;;
20802;SDS011;10562;-33.856;151.182;2023-05-16T00:12:26;22.70;;;18.30;;
20802;SDS011;10562;-33.856;151.182;2023-05-16T00:14:58;18.95;;;16.95;;
20802;SDS011;10562;-33.856;151.182;2023-05-16T00:17:29;21.05;;;18.33;;
20802;SDS011;10562;-33.856;151.182;2023-05-16T00:20:02;20.17;;;17.08;;
20802;SDS011;10562;-33.856;151.182;2023-05-16T00:22:37;23.33;;;16.17;;
20802;SDS011;10562;-33.856;151.182;2023-05-16T00:25:08;19.10;;;16.75;;
20802;SDS011;10562;-33.856;151.182;2023-05-16T00:27:38;19.77;;;16.98;;
20802;SDS011;10562;-33.856;151.182;2023-05-16T00:30:09;19.88;;;16.77;;
20802;SDS011;10562;-33.856;151.182;2023-05-16T00:32:41;19.90;;;15.73;;
20802;SDS011;10562;-33.856;151.182;2023-05-16T00:35:13;22.67;;;16.05;;
20802;SDS011;10562;-33.856;151.182;2023-05-16T00:37:44;20.58;;;16.00;;
20802;SDS011;10562;-33.856;151.182;2023-05-16T00:40:15;18.98;;;15.85;;
20802;SDS011;10562;-33.856;151.182;2023-05-16T00:42:45;20.55;;;16.65;;
20802;SDS011;10562;-33.856;151.182;2023-05-16T00:45:16;19.08;;;16.52;;
20802;SDS011;10562;-33.856;151.182;2023-05-16T00:47:47;19.17;;;17.23;;
20802;SDS011;10562;-33.856;151.182;2023-05-16T00:50:20;21.45;;;16.35;;
20802;SDS011;10562;-33.856;151.182;2023-05-16T00:52:51;15.73;;;14.13;;
20802;SDS011;10562;-33.856;151.182;2023-05-16T00:55:22;18.25;;;13.98;;
20802;SDS011;10562;-33.856;151.182;2023-05-16T00:57:53;21.15;;;16.35;;
20802;SDS011;10562;-33.856;151.182;2023-05-16T01:00:25;20.23;;;18.13;;
20802;SDS011;10562;-33.856;151.182;2023-05-16T01:02:56;23.35;;;18.95;;
20802;SDS011;10562;-33.856;151.182;2023-05-16T01:05:29;22.60;;;20.33;;
20802;SDS011;10562;-33.856;151.182;2023-05-16T01:08:00;21.33;;;19.00;;
20802;SDS011;10562;-33.856;151.182;2023-05-16T01:10:33;22.67;;;20.20;;
20802;SDS011;10562;-33.856;151.182;2023-05-16T01:13:14;11.10;;;6.32;;
20802;SDS011;10562;-33.856;151.182;2023-05-16T01:15:53;9.02;;;5.55;;
20802;SDS011;10562;-33.856;151.182;2023-05-16T01:18:41;11.70;;;5.45;;
20802;SDS011;10562;-33.856;151.182;2023-05-16T01:21:21;9.75;;;4.47;;
20802;SDS011;10562;-33.856;151.182;2023-05-16T01:24:11;7.15;;;4.22;;
20802;SDS011;10562;-33.856;151.182;2023-05-16T01:26:51;9.48;;;4.20;;
20802;SDS011;10562;-33.856;151.182;2023-05-16T01:29:23;7.30;;;3.70;;
20802;SDS011;10562;-33.856;151.182;2023-05-16T01:31:54;7.65;;;4.20;;
20802;SDS011;10562;-33.856;151.182;2023-05-16T01:34:25;7.57;;;3.63;;
20802;SDS011;10562;-33.856;151.182;2023-05-16T01:36:57;6.70;;;2.60;;
20802;SDS011;10562;-33.856;151.182;2023-05-16T01:39:36;4.07;;;2.38;;
20802;SDS011;10562;-33.856;151.182;2023-05-16T01:42:14;3.15;;;2.00;;
20802;SDS011;10562;-33.856;151.182;2023-05-16T01:44:49;4.90;;;2.20;;
20802;SDS011;10562;-33.856;151.182;2023-05-16T01:47:25;3.58;;;1.80;;
20802;SDS011;10562;-33.856;151.182;2023-05-16T01:50:00;3.40;;;2.10;;
20802;SDS011;10562;-33.856;151.182;2023-05-16T01:52:36;2.83;;;1.90;;
20802;SDS011;10562;-33.856;151.182;2023-05-16T01:55:10;3.53;;;2.00;;
20802;SDS011;10562;-33.856;151.182;2023-05-16T01:57:48;4.07;;;2.00;;
20802;SDS011;10562;-33.856;151.182;2023-05-16T02:00:20;5.00;;;2.03;;
20802;SDS011;10562;-33.856;151.182;2023-05-16T02:02:51;3.45;;;2.00;;
20802;SDS011;10562;-33.856;151.182;2023-05-16T02:05:21;2.83;;;1.83;;
20802;SDS011;10562;-33.856;151.182;2023-05-16T02:07:52;3.78;;;2.08;;
20802;SDS011;10562;-33.856;151.182;2023-05-16T02:10:23;4.70;;;1.98;;
20802;SDS011;10562;-33.856;151.182;2023-05-16T02:12:56;5.45;;;1.92;;
20802;SDS011;10562;-33.856;151.182;2023-05-16T02:15:27;2.63;;;1.95;;
20802;SDS011;10562;-33.856;151.182;2023-05-16T02:17:58;7.35;;;2.20;;
20802;SDS011;10562;-33.856;151.182;2023-05-16T02:20:29;3.05;;;1.90;;
20802;SDS011;10562;-33.856;151.182;2023-05-16T02:23:00;4.05;;;1.77;;
20802;SDS011;10562;-33.856;151.182;2023-05-16T02:25:30;2.20;;;1.75;;
20802;SDS011;10562;-33.856;151.182;2023-05-16T02:28:03;3.58;;;1.75;;
20802;SDS011;10562;-33.856;151.182;2023-05-16T02:30:34;7.03;;;1.83;;
20802;SDS011;10562;-33.856;151.182;2023-05-16T02:33:05;3.40;;;1.95;;
20802;SDS011;10562;-33.856;151.182;2023-05-16T02:35:36;4.63;;;1.98;;
20802;SDS011;10562;-33.856;151.182;2023-05-16T02:38:06;4.18;;;1.92;;
20802;SDS011;10562;-33.856;151.182;2023-05-16T02:40:42;3.72;;;1.80;;
20802;SDS011;10562;-33.856;151.182;2023-05-16T02:43:15;2.67;;;1.70;;
20802;SDS011;10562;-33.856;151.182;2023-05-16T02:45:45;3.97;;;2.17;;
20802;SDS011;10562;-33.856;151.182;2023-05-16T02:48:16;5.25;;;1.80;;
20802;SDS011;10562;-33.856;151.182;2023-05-16T02:50:47;4.80;;;1.98;;
20802;SDS011;10562;-33.856;151.182;2023-05-16T02:53:21;3.65;;;1.52;;
20802;SDS011;10562;-33.856;151.182;2023-05-16T02:55:51;3.03;;;1.70;;
20802;SDS011;10562;-33.856;151.182;2023-05-16T02:58:25;2.60;;;1.77;;
20802;SDS011;10562;-33.856;151.182;2023-05-16T03:00:57;4.20;;;1.80;;
20802;SDS011;10562;-33.856;151.182;2023-05-16T03:03:28;2.22;;;1.60;;
20802;SDS011;10562;-33.856;151.182;2023-05-16T03:06:00;3.47;;;1.80;;
20802;SDS011;10562;-33.856;151.182;2023-05-16T03:08:31;5.10;;;2.22;;
20802;SDS011;10562;-33.856;151.182;2023-05-16T03:11:02;4.18;;;1.95;;
20802;SDS011;10562;-33.856;151.182;2023-05-16T03:13:35;3.33;;;1.90;;
20802;SDS011;10562;-33.856;151.182;2023-05-16T03:16:06;4.07;;;2.15;;
20802;SDS011;10562;-33.856;151.182;2023-05-16T03:18:36;3.05;;;1.70;;
20802;SDS011;10562;-33.856;151.182;2023-05-16T03:21:07;7.93;;;1.80;;
20802;SDS011;10562;-33.856;151.182;2023-05-16T03:23:38;2.78;;;1.83;;
20802;SDS011;10562;-33.856;151.182;2023-05-16T03:26:09;3.60;;;1.75;;
20802;SDS011;10562;-33.856;151.182;2023-05-16T03:28:42;3.95;;;1.90;;
20802;SDS011;10562;-33.856;151.182;2023-05-16T03:31:12;2.05;;;1.52;;
20802;SDS011;10562;-33.856;151.182;2023-05-16T03:33:43;3.17;;;1.80;;
20802;SDS011;10562;-33.856;151.182;2023-05-16T03:36:14;4.50;;;1.60;;
20802;SDS011;10562;-33.856;151.182;2023-05-16T03:38:45;2.88;;;1.67;;
20802;SDS011;10562;-33.856;151.182;2023-05-16T03:41:16;2.50;;;1.70;;
20802;SDS011;10562;-33.856;151.182;2023-05-16T03:43:49;4.78;;;1.77;;
20802;SDS011;10562;-33.856;151.182;2023-05-16T03:46:20;5.00;;;1.90;;
20802;SDS011;10562;-33.856;151.182;2023-05-16T03:48:50;5.40;;;2.08;;
20802;SDS011;10562;-33.856;151.182;2023-05-16T03:51:21;3.38;;;1.90;;
20802;SDS011;10562;-33.856;151.182;2023-05-16T03:53:52;3.88;;;1.80;;
20802;SDS011;10562;-33.856;151.182;2023-05-16T03:56:23;3.92;;;1.63;;
20802;SDS011;10562;-33.856;151.182;2023-05-16T03:58:55;6.72;;;2.00;;
20802;SDS011;10562;-33.856;151.182;2023-05-16T04:01:26;3.28;;;1.70;;
20802;SDS011;10562;-33.856;151.182;2023-05-16T04:03:57;2.72;;;1.95;;
20802;SDS011;10562;-33.856;151.182;2023-05-16T04:06:28;5.15;;;1.90;;
20802;SDS011;10562;-33.856;151.182;2023-05-16T04:08:59;3.25;;;1.85;;
20802;SDS011;10562;-33.856;151.182;2023-05-16T04:11:30;2.47;;;1.77;;
20802;SDS011;10562;-33.856;151.182;2023-05-16T04:14:03;4.10;;;2.10;;
20802;SDS011;10562;-33.856;151.182;2023-05-16T04:16:34;3.92;;;2.05;;
20802;SDS011;10562;-33.856;151.182;2023-05-16T04:19:05;3.53;;;1.70;;
20802;SDS011;10562;-33.856;151.182;2023-05-16T04:21:36;5.07;;;1.80;;
20802;SDS011;10562;-33.856;151.182;2023-05-16T04:24:07;5.90;;;1.73;;
20802;SDS011;10562;-33.856;151.182;2023-05-16T04:26:37;4.80;;;1.88;;
20802;SDS011;10562;-33.856;151.182;2023-05-16T04:29:10;3.22;;;1.58;;
20802;SDS011;10562;-33.856;151.182;2023-05-16T04:31:41;3.97;;;1.88;;
20802;SDS011;10562;-33.856;151.182;2023-05-16T04:34:12;3.58;;;1.90;;
20802;SDS011;10562;-33.856;151.182;2023-05-16T04:36:43;4.07;;;2.00;;
20802;SDS011;10562;-33.856;151.182;2023-05-16T04:39:14;3.13;;;1.73;;
20802;SDS011;10562;-33.856;151.182;2023-05-16T04:41:44;2.72;;;1.80;;
20802;SDS011;10562;-33.856;151.182;2023-05-16T04:44:17;2.78;;;1.50;;
20802;SDS011;10562;-33.856;151.182;2023-05-16T04:46:48;3.05;;;1.80;;
20802;SDS011;10562;-33.856;151.182;2023-05-16T04:49:19;3.05;;;1.88;;
20802;SDS011;10562;-33.856;151.182;2023-05-16T04:51:50;3.13;;;1.70;;
20802;SDS011;10562;-33.856;151.182;2023-05-16T04:54:21;5.90;;;1.52;;
20802;SDS011;10562;-33.856;151.182;2023-05-16T04:56:51;4.45;;;1.60;;
20802;SDS011;10562;-33.856;151.182;2023-05-16T04:59:24;2.78;;;1.70;;
20802;SDS011;10562;-33.856;151.182;2023-05-16T05:01:55;4.20;;;1.90;;
20802;SDS011;10562;-33.856;151.182;2023-05-16T05:04:25;4.68;;;1.80;;
20802;SDS011;10562;-33.856;151.182;2023-05-16T05:06:56;2.08;;;1.60;;
20802;SDS011;10562;-33.856;151.182;2023-05-16T05:09:27;2.35;;;1.52;;
20802;SDS011;10562;-33.856;151.182;2023-05-16T05:11:58;2.88;;;1.60;;
20802;SDS011;10562;-33.856;151.182;2023-05-16T05:14:30;4.03;;;1.80;;
20802;SDS011;10562;-33.856;151.182;2023-05-16T05:17:01;2.72;;;1.60;;
20802;SDS011;10562;-33.856;151.182;2023-05-16T05:19:32;2.08;;;1.50;;
20802;SDS011;10562;-33.856;151.182;2023-05-16T05:22:02;4.68;;;1.48;;
20802;SDS011;10562;-33.856;151.182;2023-05-16T05:24:33;5.13;;;1.52;;
20802;SDS011;10562;-33.856;151.182;2023-05-16T05:27:04;3.10;;;1.50;;
20802;SDS011;10562;-33.856;151.182;2023-05-16T05:29:37;3.05;;;1.67;;
20802;SDS011;10562;-33.856;151.182;2023-05-16T05:32:08;2.72;;;1.40;;
20802;SDS011;10562;-33.856;151.182;2023-05-16T05:34:38;3.78;;;1.55;;
20802;SDS011;10562;-33.856;151.182;2023-05-16T05:37:10;2.25;;;1.52;;
20802;SDS011;10562;-33.856;151.182;2023-05-16T05:39:41;2.45;;;1.30;;
20802;SDS011;10562;-33.856;151.182;2023-05-16T05:42:12;4.78;;;1.77;;
20802;SDS011;10562;-33.856;151.182;2023-05-16T05:44:45;2.65;;;1.67;;
20802;SDS011;10562;-33.856;151.182;2023-05-16T05:47:16;2.80;;;1.50;;
20802;SDS011;10562;-33.856;151.182;2023-05-16T05:49:47;5.00;;;1.70;;
20802;SDS011;10562;-33.856;151.182;2023-05-16T05:52:18;3.08;;;1.50;;
20802;SDS011;10562;-33.856;151.182;2023-05-16T05:54:49;4.35;;;1.80;;
20802;SDS011;10562;-33.856;151.182;2023-05-16T05:57:20;3.03;;;1.52;;
20802;SDS011;10562;-33.856;151.182;2023-05-16T05:59:52;2.35;;;1.50;;
20802;SDS011;10562;-33.856;151.182;2023-05-16T06:02:23;2.60;;;1.77;;
20802;SDS011;10562;-33.856;151.182;2023-05-16T06:04:54;4.72;;;1.55;;
20802;SDS011;10562;-33.856;151.182;2023-05-16T06:07:25;3.42;;;1.80;;
20802;SDS011;10562;-33.856;151.182;2023-05-16T06:09:56;2.90;;;1.67;;
20802;SDS011;10562;-33.856;151.182;2023-05-16T06:12:29;5.22;;;1.98;;
20802;SDS011;10562;-33.856;151.182;2023-05-16T06:15:02;2.88;;;1.70;;
20802;SDS011;10562;-33.856;151.182;2023-05-16T06:17:33;2.80;;;1.63;;
20802;SDS011;10562;-33.856;151.182;2023-05-16T06:20:04;3.97;;;1.90;;
20802;SDS011;10562;-33.856;151.182;2023-05-16T06:22:35;4.60;;;1.70;;
20802;SDS011;10562;-33.856;151.182;2023-05-16T06:25:06;2.20;;;1.70;;
20802;SDS011;10562;-33.856;151.182;2023-05-16T06:27:37;3.67;;;1.80;;
20802;SDS011;10562;-33.856;151.182;2023-05-16T06:30:10;5.97;;;1.85;;
20802;SDS011;10562;-33.856;151.182;2023-05-16T06:32:41;6.32;;;2.63;;
20802;SDS011;10562;-33.856;151.182;2023-05-16T06:35:12;3.58;;;2.08;;
20802;SDS011;10562;-33.856;151.182;2023-05-16T06:37:42;2.83;;;1.80;;
20802;SDS011;10562;-33.856;151.182;2023-05-16T06:40:13;3.40;;;1.90;;
20802;SDS011;10562;-33.856;151.182;2023-05-16T06:42:44;5.63;;;1.90;;
20802;SDS011;10562;-33.856;151.182;2023-05-16T06:45:17;10.48;;;2.20;;
20802;SDS011;10562;-33.856;151.182;2023-05-16T06:47:49;4.28;;;2.00;;
20802;SDS011;10562;-33.856;151.182;2023-05-16T06:50:20;4.60;;;2.22;;
20802;SDS011;10562;-33.856;151.182;2023-05-16T06:52:51;36.90;;;12.20;;
20802;SDS011;10562;-33.856;151.182;2023-05-16T06:55:22;21.70;;;8.18;;
20802;SDS011;10562;-33.856;151.182;2023-05-16T06:57:52;9.52;;;4.65;;
20802;SDS011;10562;-33.856;151.182;2023-05-16T07:00:25;4.28;;;2.20;;
20802;SDS011;10562;-33.856;151.182;2023-05-16T07:02:56;4.82;;;2.40;;
20802;SDS011;10562;-33.856;151.182;2023-05-16T07:05:27;4.00;;;2.22;;
20802;SDS011;10562;-33.856;151.182;2023-05-16T07:07:57;5.15;;;2.10;;
20802;SDS011;10562;-33.856;151.182;2023-05-16T07:10:28;8.00;;;2.10;;
20802;SDS011;10562;-33.856;151.182;2023-05-16T07:12:59;7.20;;;2.30;;
20802;SDS011;10562;-33.856;151.182;2023-05-16T07:15:32;4.22;;;2.13;;
20802;SDS011;10562;-33.856;151.182;2023-05-16T07:18:02;2.90;;;2.00;;
20802;SDS011;10562;-33.856;151.182;2023-05-16T07:20:33;4.88;;;2.42;;
20802;SDS011;10562;-33.856;151.182;2023-05-16T07:23:04;5.60;;;2.58;;
20802;SDS011;10562;-33.856;151.182;2023-05-16T07:25:35;5.57;;;2.22;;
20802;SDS011;10562;-33.856;151.182;2023-05-16T07:28:06;5.43;;;2.50;;
20802;SDS011;10562;-33.856;151.182;2023-05-16T07:30:39;4.93;;;2.55;;
20802;SDS011;10562;-33.856;151.182;2023-05-16T07:33:09;6.60;;;2.53;;
20802;SDS011;10562;-33.856;151.182;2023-05-16T07:35:40;5.15;;;2.50;;
20802;SDS011;10562;-33.856;151.182;2023-05-16T07:38:11;7.90;;;2.72;;
20802;SDS011;10562;-33.856;151.182;2023-05-16T07:40:42;6.30;;;2.92;;
20802;SDS011;10562;-33.856;151.182;2023-05-16T07:43:13;6.97;;;3.50;;
20802;SDS011;10562;-33.856;151.182;2023-05-16T07:45:45;8.90;;;3.35;;
20802;SDS011;10562;-33.856;151.182;2023-05-16T07:48:16;6.40;;;2.97;;
20802;SDS011;10562;-33.856;151.182;2023-05-16T07:50:47;7.35;;;3.00;;
20802;SDS011;10562;-33.856;151.182;2023-05-16T07:53:18;5.95;;;2.80;;
20802;SDS011;10562;-33.856;151.182;2023-05-16T07:55:49;5.32;;;2.60;;
20802;SDS011;10562;-33.856;151.182;2023-05-16T07:58:20;4.38;;;2.60;;
20802;SDS011;10562;-33.856;151.182;2023-05-16T08:00:53;6.88;;;2.70;;
20802;SDS011;10562;-33.856;151.182;2023-05-16T08:03:24;5.65;;;2.65;;
20802;SDS011;10562;-33.856;151.182;2023-05-16T08:05:55;7.88;;;2.90;;
20802;SDS011;10562;-33.856;151.182;2023-05-16T08:08:26;6.05;;;2.75;;
20802;SDS011;10562;-33.856;151.182;2023-05-16T08:10:56;6.55;;;3.00;;
20802;SDS011;10562;-33.856;151.182;2023-05-16T08:13:27;7.22;;;3.17;;
20802;SDS011;10562;-33.856;151.182;2023-05-16T08:16:00;7.28;;;3.17;;
20802;SDS011;10562;-33.856;151.182;2023-05-16T08:18:31;5.53;;;3.20;;
20802;SDS011;10562;-33.856;151.182;2023-05-16T08:21:01;6.55;;;3.00;;
20802;SDS011;10562;-33.856;151.182;2023-05-16T08:23:32;6.75;;;2.90;;
20802;SDS011;10562;-33.856;151.182;2023-05-16T08:26:03;8.63;;;3.30;;
20802;SDS011;10562;-33.856;151.182;2023-05-16T08:28:34;7.47;;;3.10;;
20802;SDS011;10562;-33.856;151.182;2023-05-16T08:31:07;9.48;;;3.38;;
20802;SDS011;10562;-33.856;151.182;2023-05-16T08:33:37;7.20;;;2.97;;
20802;SDS011;10562;-33.856;151.182;2023-05-16T08:36:08;6.65;;;2.60;;
20802;SDS011;10562;-33.856;151.182;2023-05-16T08:38:41;5.22;;;2.90;;
20802;SDS011;10562;-33.856;151.182;2023-05-16T08:41:11;8.35;;;3.03;;
20802;SDS011;10562;-33.856;151.182;2023-05-16T08:43:42;14.13;;;3.95;;
20802;SDS011;10562;-33.856;151.182;2023-05-16T08:46:15;6.47;;;3.03;;
20802;SDS011;10562;-33.856;151.182;2023-05-16T08:48:51;9.02;;;3.85;;
20802;SDS011;10562;-33.856;151.182;2023-05-16T08:51:26;7.13;;;3.40;;
20802;SDS011;10562;-33.856;151.182;2023-05-16T08:54:02;13.38;;;3.33;;
20802;SDS011;10562;-33.856;151.182;2023-05-16T08:56:35;8.45;;;3.90;;
20802;SDS011;10562;-33.856;151.182;2023-05-16T08:59:06;10.45;;;3.92;;
20802;SDS011;10562;-33.856;151.182;2023-05-16T09:01:39;7.75;;;3.63;;
20802;SDS011;10562;-33.856;151.182;2023-05-16T09:04:10;6.75;;;3.40;;
20802;SDS011;10562;-33.856;151.182;2023-05-16T09:06:42;6.57;;;3.40;;
20802;SDS011;10562;-33.856;151.182;2023-05-16T09:09:13;10.50;;;3.83;;
20802;SDS011;10562;-33.856;151.182;2023-05-16T09:11:44;7.50;;;3.67;;
20802;SDS011;10562;-33.856;151.182;2023-05-16T09:14:15;6.43;;;3.15;;
20802;SDS011;10562;-33.856;151.182;2023-05-16T09:16:48;10.90;;;3.70;;
20802;SDS011;10562;-33.856;151.182;2023-05-16T09:19:37;10.55;;;3.80;;
20802;SDS011;10562;-33.856;151.182;2023-05-16T09:22:09;12.10;;;3.97;;
20802;SDS011;10562;-33.856;151.182;2023-05-16T09:24:41;9.77;;;4.00;;
20802;SDS011;10562;-33.856;151.182;2023-05-16T09:27:13;9.82;;;4.35;;
20802;SDS011;10562;-33.856;151.182;2023-05-16T09:29:45;12.60;;;4.88;;
20802;SDS011;10562;-33.856;151.182;2023-05-16T09:32:22;9.18;;;4.20;;
20802;SDS011;10562;-33.856;151.182;2023-05-16T09:34:53;10.90;;;3.78;;
20802;SDS011;10562;-33.856;151.182;2023-05-16T09:37:24;7.65;;;3.17;;
20802;SDS011;10562;-33.856;151.182;2023-05-16T09:39:55;7.72;;;3.63;;
20802;SDS011;10562;-33.856;151.182;2023-05-16T09:42:25;13.27;;;3.80;;
20802;SDS011;10562;-33.856;151.182;2023-05-16T09:44:56;11.98;;;3.90;;
20802;SDS011;10562;-33.856;151.182;2023-05-16T09:47:29;7.70;;;4.10;;
20802;SDS011;10562;-33.856;151.182;2023-05-16T09:50:00;11.18;;;3.75;;
20802;SDS011;10562;-33.856;151.182;2023-05-16T09:52:31;7.72;;;3.83;;
20802;SDS011;10562;-33.856;151.182;2023-05-16T09:55:02;8.13;;;3.83;;
20802;SDS011;10562;-33.856;151.182;2023-05-16T09:57:39;10.13;;;3.95;;
20802;SDS011;10562;-33.856;151.182;2023-05-16T10:00:10;10.48;;;4.10;;
20802;SDS011;10562;-33.856;151.182;2023-05-16T10:02:44;7.70;;;4.00;;
20802;SDS011;10562;-33.856;151.182;2023-05-16T10:05:15;15.30;;;7.13;;
20802;SDS011;10562;-33.856;151.182;2023-05-16T10:07:46;19.20;;;8.80;;
20802;SDS011;10562;-33.856;151.182;2023-05-16T10:10:18;13.25;;;6.13;;
20802;SDS011;10562;-33.856;151.182;2023-05-16T10:12:49;17.42;;;6.18;;
20802;SDS011;10562;-33.856;151.182;2023-05-16T10:15:21;11.00;;;5.00;;
20802;SDS011;10562;-33.856;151.182;2023-05-16T10:17:54;10.48;;;4.68;;
20802;SDS011;10562;-33.856;151.182;2023-05-16T10:20:26;12.82;;;5.07;;
20802;SDS011;10562;-33.856;151.182;2023-05-16T10:22:57;8.90;;;4.18;;
20802;SDS011;10562;-33.856;151.182;2023-05-16T10:25:31;9.75;;;4.13;;
20802;SDS011;10562;-33.856;151.182;2023-05-16T10:28:06;8.18;;;4.10;;
20802;SDS011;10562;-33.856;151.182;2023-05-16T10:30:39;7.22;;;3.97;;
20802;SDS011;10562;-33.856;151.182;2023-05-16T10:33:13;10.00;;;4.40;;
20802;SDS011;10562;-33.856;151.182;2023-05-16T10:35:45;8.57;;;4.28;;
20802;SDS011;10562;-33.856;151.182;2023-05-16T10:38:16;11.30;;;4.78;;
20802;SDS011;10562;-33.856;151.182;2023-05-16T10:40:49;15.15;;;4.97;;
20802;SDS011;10562;-33.856;151.182;2023-05-16T10:43:24;9.95;;;4.57;;
20802;SDS011;10562;-33.856;151.182;2023-05-16T10:45:56;16.30;;;4.93;;
20802;SDS011;10562;-33.856;151.182;2023-05-16T10:48:32;15.43;;;5.53;;
20802;SDS011;10562;-33.856;151.182;2023-05-16T10:51:04;11.35;;;4.63;;
20802;SDS011;10562;-33.856;151.182;2023-05-16T10:54:05;12.45;;;4.65;;
20802;SDS011;10562;-33.856;151.182;2023-05-16T10:56:38;13.57;;;5.07;;
20802;SDS011;10562;-33.856;151.182;2023-05-16T10:59:21;12.07;;;5.28;;
20802;SDS011;10562;-33.856;151.182;2023-05-16T11:01:54;11.15;;;4.32;;
20802;SDS011;10562;-33.856;151.182;2023-05-16T11:04:31;14.15;;;4.93;;
20802;SDS011;10562;-33.856;151.182;2023-05-16T11:07:16;11.82;;;4.78;;
20802;SDS011;10562;-33.856;151.182;2023-05-16T11:12:47;11.95;;;4.45;;
20802;SDS011;10562;-33.856;151.182;2023-05-16T11:15:20;13.65;;;5.05;;
20802;SDS011;10562;-33.856;151.182;2023-05-16T11:18:04;11.85;;;4.57;;
20802;SDS011;10562;-33.856;151.182;2023-05-16T11:20:37;13.20;;;4.30;;
20802;SDS011;10562;-33.856;151.182;2023-05-16T11:23:18;10.10;;;4.43;;
20802;SDS011;10562;-33.856;151.182;2023-05-16T11:25:53;12.45;;;4.90;;
20802;SDS011;10562;-33.856;151.182;2023-05-16T11:28:26;11.38;;;4.65;;
20802;SDS011;10562;-33.856;151.182;2023-05-16T11:30:57;12.77;;;5.00;;
20802;SDS011;10562;-33.856;151.182;2023-05-16T11:33:30;11.85;;;6.07;;
20802;SDS011;10562;-33.856;151.182;2023-05-16T11:36:05;10.40;;;5.68;;
20802;SDS011;10562;-33.856;151.182;2023-05-16T11:38:37;13.98;;;6.80;;
20802;SDS011;10562;-33.856;151.182;2023-05-16T11:41:09;16.13;;;7.35;;
20802;SDS011;10562;-33.856;151.182;2023-05-16T11:43:43;13.63;;;7.03;;
20802;SDS011;10562;-33.856;151.182;2023-05-16T11:46:14;16.10;;;7.38;;
20802;SDS011;10562;-33.856;151.182;2023-05-16T11:48:45;12.07;;;6.70;;
20802;SDS011;10562;-33.856;151.182;2023-05-16T11:51:19;11.45;;;7.53;;
20802;SDS011;10562;-33.856;151.182;2023-05-16T11:53:50;14.13;;;7.53;;
20802;SDS011;10562;-33.856;151.182;2023-05-16T11:56:21;10.60;;;7.07;;
20802;SDS011;10562;-33.856;151.182;2023-05-16T11:58:52;12.30;;;7.40;;
20802;SDS011;10562;-33.856;151.182;2023-05-16T12:01:23;10.73;;;7.90;;
20802;SDS011;10562;-33.856;151.182;2023-05-16T12:03:59;14.43;;;7.53;;
20802;SDS011;10562;-33.856;151.182;2023-05-16T12:06:31;14.13;;;8.88;;
20802;SDS011;10562;-33.856;151.182;2023-05-16T12:09:03;14.00;;;8.25;;
20802;SDS011;10562;-33.856;151.182;2023-05-16T12:11:36;13.25;;;8.30;;
20802;SDS011;10562;-33.856;151.182;2023-05-16T12:14:07;14.95;;;9.65;;
20802;SDS011;10562;-33.856;151.182;2023-05-16T12:16:39;16.65;;;11.25;;
20802;SDS011;10562;-33.856;151.182;2023-05-16T12:19:11;15.75;;;11.32;;
20802;SDS011;10562;-33.856;151.182;2023-05-16T12:21:44;18.52;;;12.85;;
20802;SDS011;10562;-33.856;151.182;2023-05-16T12:24:15;17.02;;;12.38;;
20802;SDS011;10562;-33.856;151.182;2023-05-16T12:26:46;19.83;;;12.30;;
20802;SDS011;10562;-33.856;151.182;2023-05-16T12:29:16;21.77;;;12.73;;
20802;SDS011;10562;-33.856;151.182;2023-05-16T12:31:52;17.67;;;12.55;;
20802;SDS011;10562;-33.856;151.182;2023-05-16T12:34:22;17.92;;;13.25;;
20802;SDS011;10562;-33.856;151.182;2023-05-16T12:36:58;18.50;;;12.23;;
20802;SDS011;10562;-33.856;151.182;2023-05-16T12:39:35;14.68;;;11.02;;
20802;SDS011;10562;-33.856;151.182;2023-05-16T12:42:06;17.05;;;10.65;;
20802;SDS011;10562;-33.856;151.182;2023-05-16T12:44:39;20.73;;;13.50;;
20802;SDS011;10562;-33.856;151.182;2023-05-16T12:47:14;18.02;;;12.55;;
20802;SDS011;10562;-33.856;151.182;2023-05-16T12:49:46;21.75;;;15.23;;
20802;SDS011;10562;-33.856;151.182;2023-05-16T12:52:19;27.42;;;15.55;;
20802;SDS011;10562;-33.856;151.182;2023-05-16T12:54:50;20.52;;;18.52;;
20802;SDS011;10562;-33.856;151.182;2023-05-16T12:57:21;31.27;;;28.23;;
20802;SDS011;10562;-33.856;151.182;2023-05-16T12:59:52;60.33;;;54.25;;
20802;SDS011;10562;-33.856;151.182;2023-05-16T13:02:25;72.22;;;65.65;;
20802;SDS011;10562;-33.856;151.182;2023-05-16T13:04:56;77.13;;;70.15;;
20802;SDS011;10562;-33.856;151.182;2023-05-16T13:07:28;90.72;;;82.63;;
20802;SDS011;10562;-33.856;151.182;2023-05-16T13:09:59;98.65;;;89.72;;
20802;SDS011;10562;-33.856;151.182;2023-05-16T13:12:30;103.47;;;93.95;;
20802;SDS011;10562;-33.856;151.182;2023-05-16T13:15:01;111.25;;;101.68;;
20802;SDS011;10562;-33.856;151.182;2023-05-16T13:17:32;108.55;;;99.68;;
20802;SDS011;10562;-33.856;151.182;2023-05-16T13:20:04;109.25;;;100.63;;
20802;SDS011;10562;-33.856;151.182;2023-05-16T13:22:40;105.35;;;97.40;;
20802;SDS011;10562;-33.856;151.182;2023-05-16T13:25:11;104.28;;;95.13;;
20802;SDS011;10562;-33.856;151.182;2023-05-16T13:27:42;107.68;;;99.22;;
20802;SDS011;10562;-33.856;151.182;2023-05-16T13:30:14;110.68;;;102.45;;
20802;SDS011;10562;-33.856;151.182;2023-05-16T13:32:45;154.52;;;143.43;;
20802;SDS011;10562;-33.856;151.182;2023-05-16T13:35:16;177.85;;;164.88;;
20802;SDS011;10562;-33.856;151.182;2023-05-16T13:37:48;273.02;;;253.85;;
20802;SDS011;10562;-33.856;151.182;2023-05-16T13:40:19;326.45;;;299.42;;
20802;SDS011;10562;-33.856;151.182;2023-05-16T13:42:50;247.15;;;229.38;;
20802;SDS011;10562;-33.856;151.182;2023-05-16T13:45:21;225.18;;;207.77;;
20802;SDS011;10562;-33.856;151.182;2023-05-16T13:47:52;160.27;;;147.27;;
20802;SDS011;10562;-33.856;151.182;2023-05-16T13:50:23;162.05;;;150.10;;
20802;SDS011;10562;-33.856;151.182;2023-05-16T13:52:55;179.02;;;165.75;;
20802;SDS011;10562;-33.856;151.182;2023-05-16T13:55:26;205.68;;;190.05;;
20802;SDS011;10562;-33.856;151.182;2023-05-16T13:57:57;223.70;;;206.98;;
20802;SDS011;10562;-33.856;151.182;2023-05-16T14:00:28;193.02;;;177.48;;
20802;SDS011;10562;-33.856;151.182;2023-05-16T14:02:58;174.15;;;159.77;;
20802;SDS011;10562;-33.856;151.182;2023-05-16T14:05:29;163.05;;;149.50;;
20802;SDS011;10562;-33.856;151.182;2023-05-16T14:08:02;161.35;;;147.40;;
20802;SDS011;10562;-33.856;151.182;2023-05-16T14:10:33;153.23;;;140.43;;
20802;SDS011;10562;-33.856;151.182;2023-05-16T14:13:05;164.93;;;151.63;;
20802;SDS011;10562;-33.856;151.182;2023-05-16T14:15:35;163.43;;;149.95;;
20802;SDS011;10562;-33.856;151.182;2023-05-16T14:18:06;159.90;;;147.40;;
20802;SDS011;10562;-33.856;151.182;2023-05-16T14:20:37;156.10;;;144.25;;
20802;SDS011;10562;-33.856;151.182;2023-05-16T14:23:09;150.07;;;138.25;;
20802;SDS011;10562;-33.856;151.182;2023-05-16T14:25:40;149.77;;;138.15;;
20802;SDS011;10562;-33.856;151.182;2023-05-16T14:28:11;145.77;;;134.35;;
20802;SDS011;10562;-33.856;151.182;2023-05-16T14:30:42;136.82;;;125.70;;